• location
  • image
mod_vvisit_countermod_vvisit_countermod_vvisit_countermod_vvisit_countermod_vvisit_countermod_vvisit_counter
mod_vvisit_counterToday64
mod_vvisit_counterYesterday1307
mod_vvisit_counterThis week6761
mod_vvisit_counterLast week5524
mod_vvisit_counterThis month19139
mod_vvisit_counterLast month22413
mod_vvisit_counterAll days849780

We have: 45 guests online
Your IP: 54.90.119.59
 , 
Today: Feb 24, 2018
Airport / Information for passengers / Rules

Rules

This section will provide the following information: the procedures and regulations before departure, baggage allowance, the Customs and State Border Guard Service procedures, how to plan your child’s or pet’s trip.


Today

Saturday, 24 February 2018

Aviation Weather Forecast

[source: ADDS]
METAR
EYSA 232220Z 09013KT 6000 -SN OVC020 M10/M11 Q1024 R14L/590291 R14R/490391 WHT NOSIG =
TAF
TAF COR EYSA 232006Z 2321/2406 11014KT 3000 SN BR OVC015 TEMPO 2321/2401 0800 +SN OVC003 BECMG 2402/2403 06014KT 6000 BKN005 OVC010 =
SR / SS: 05:28 / 15:53 UTC (EYSA 2018-02-24)

Search

Who's Online

We have 45 guests online

tic logo en